Time;durP1;ratioP1;P1;durP2;ratioP2;P2;SDS_P1;SDS_P2;PMS_P1;PMS_P2;Temp;Humidity;BMP_temperature;BMP_pressure;BME280_temperature;BME280_humidity;BME280_pressure;Samples;Min_cycle;Max_cycle;Signal;HPM_P1;HPM_P2
2022/11/18 08:50:58;;;;;;;;;;;;;;;18.71;57.31;98434.91;1938089;72;20129;-59
2022/11/18 08:53:45;;;;;;;;;;;;;;;19.05;56.76;98433.25;1932170;73;20186;-61
2022/11/18 08:56:33;;;;;;;1.22;0.30;;;;;;;19.84;55.26;98437.47;1888999;75;27840;-59
2022/11/18 08:59:22;;;;;;;1.20;0.50;;;;;;;20.51;53.79;98426.77;1910230;73;28043;-61
2022/11/18 09:02:16;;;;;;;0.50;0.35;;;;;;;21.05;52.44;98432.05;1901687;73;28041;-60
2022/11/18 09:05:05;;;;;;;1.15;0.30;;;;;;;21.48;51.37;98442.22;1901752;73;28089;-60
2022/11/18 09:07:53;;;;;;;0.30;0.30;;;;;;;21.85;50.33;98438.64;1901510;73;28045;-60
2022/11/18 09:10:42;;;;;;;0.30;0.30;;;;;;;22.16;49.46;98437.63;1906874;73;27908;-60
2022/11/18 09:13:30;;;;;;;0.23;0.23;;;;;;;22.42;48.69;98443.65;1914219;73;28022;-60
2022/11/18 09:16:18;;;;;;;0.53;0.50;;;;;;;22.60;48.17;98446.87;1914261;73;27948;-61
2022/11/18 09:19:07;;;;;;;0.33;0.33;;;;;;;22.77;47.73;98448.66;1909680;73;28495;-62
2022/11/18 09:21:55;;;;;;;1.50;0.40;;;;;;;22.90;47.53;98455.05;1888933;75;28526;-60
2022/11/18 09:24:43;;;;;;;1.30;0.40;;;;;;;23.04;47.02;98448.88;1896511;75;28118;-60
2022/11/18 09:27:32;;;;;;;1.60;0.50;;;;;;;23.16;46.75;98459.11;1888372;75;28086;-59
2022/11/18 09:30:20;;;;;;;1.05;0.53;;;;;;;23.25;46.54;98458.89;1890066;75;28102;-59
2022/11/18 09:33:09;;;;;;;1.15;0.40;;;;;;;23.34;46.44;98466.92;1887238;75;28111;-59
2022/11/18 09:35:57;;;;;;;0.70;0.47;;;;;;;23.38;46.22;98462.56;1866956;75;28037;-59
2022/11/18 09:38:46;;;;;;;1.45;0.60;;;;;;;23.43;46.10;98457.69;1895544;75;28009;-60
2022/11/18 09:41:50;;;;;;;0.40;0.40;;;;;;;23.48;45.94;98449.47;1896879;74;28040;-59
2022/11/18 09:44:58;;;;;;;0.40;0.40;;;;;;;23.53;45.75;98455.52;1908943;74;31087;-59
2022/11/18 09:47:48;;;;;;;1.80;0.40;;;;;;;23.59;45.63;98454.48;1877868;74;28141;-60
2022/11/18 09:50:38;;;;;;;0.80;0.40;;;;;;;23.60;45.54;98454.73;1925446;73;28143;-61
2022/11/18 09:53:26;;;;;;;0.33;0.33;;;;;;;23.65;45.47;98460.25;1913948;73;28022;-58
2022/11/18 09:56:16;;;;;;;0.65;0.40;;;;;;;23.69;45.32;98462.20;1881630;75;34088;-59
2022/11/18 09:59:05;;;;;;;0.53;0.53;;;;;;;23.68;45.25;98467.95;1893388;74;28150;-59
2022/11/18 10:01:56;;;;;;;0.30;0.30;;;;;;;23.70;45.12;98469.34;1897090;74;28074;-58
2022/11/18 10:04:45;;;;;;;0.78;0.35;;;;;;;23.73;45.00;98476.21;1885433;74;28112;-57
2022/11/18 10:07:45;;;;;;;0.47;0.47;;;;;;;23.78;44.95;98481.16;1903125;74;28022;-59
2022/11/18 10:10:42;;;;;;;1.50;0.50;;;;;;;23.75;44.94;98475.39;1857453;74;28031;-60
2022/11/18 10:14:01;;;;;;;1.30;0.33;;;;;;;23.74;44.88;98481.95;1882837;75;28544;-59
2022/11/18 10:17:18;;;;;;;0.60;0.30;;;;;;;23.73;44.93;98484.44;1880754;74;28040;-60
2022/11/18 10:20:19;;;;;;;0.40;0.40;;;;;;;23.68;44.92;98477.02;1896604;74;28052;-59
2022/11/18 10:23:22;;;;;;;4.15;0.53;;;;;;;23.77;44.89;98482.80;1900324;74;28132;-59
2022/11/18 10:26:12;;;;;;;0.80;0.60;;;;;;;23.81;44.74;98483.38;1877865;75;28014;-59
2022/11/18 10:29:01;;;;;;;0.40;0.40;;;;;;;23.88;44.64;98478.47;1904503;74;27975;-59
2022/11/18 10:32:08;;;;;;;0.30;0.30;;;;;;;23.94;44.55;98478.77;1902594;74;28106;-59
2022/11/18 10:34:58;;;;;;;0.33;0.33;;;;;;;24.00;44.34;98480.98;1878702;73;28070;-59
2022/11/18 10:37:49;;;;;;;0.50;0.40;;;;;;;23.97;44.34;98478.77;1896132;74;34816;-59
2022/11/18 10:40:49;;;;;;;0.72;0.50;;;;;;;23.94;44.30;98477.96;1882644;75;28326;-59
2022/11/18 10:43:53;;;;;;;0.65;0.42;;;;;;;23.88;44.34;98471.62;1860484;75;28530;-59
2022/11/18 10:46:41;;;;;;;0.45;0.45;;;;;;;23.96;44.31;98473.03;1896711;75;28025;-61
2022/11/18 10:49:33;;;;;;;0.50;0.45;;;;;;;24.00;44.21;98473.59;1884017;75;28031;-58
2022/11/18 10:52:21;;;;;;;0.60;0.40;;;;;;;23.96;44.19;98464.26;1887794;74;28174;-60
2022/11/18 10:55:16;;;;;;;0.60;0.40;;;;;;;23.95;44.15;98461.22;1897942;74;38386;-60
2022/11/18 10:58:10;;;;;;;0.60;0.50;;;;;;;23.95;44.10;98455.73;1910270;74;28098;-60
2022/11/18 11:01:08;;;;;;;2.22;0.40;;;;;;;23.91;44.20;98453.80;1908586;74;28115;-59
2022/11/18 11:04:02;;;;;;;1.92;0.40;;;;;;;23.92;44.17;98455.47;1902094;74;28193;-59
2022/11/18 11:06:51;;;;;;;0.30;0.30;;;;;;;23.93;44.20;98453.81;1910202;74;28050;-59
2022/11/18 11:09:40;;;;;;;0.35;0.30;;;;;;;23.91;44.13;98442.83;1887990;74;32471;-61
2022/11/18 11:12:31;;;;;;;0.50;0.50;;;;;;;23.92;44.12;98432.16;1880278;74;27998;-59
2022/11/18 11:15:37;;;;;;;0.35;0.35;;;;;;;23.93;44.00;98441.47;1899695;74;28035;-60
2022/11/18 11:18:43;;;;;;;1.67;0.47;;;;;;;23.93;43.98;98442.02;1872780;74;28083;-60
2022/11/18 11:21:32;;;;;;;0.50;0.50;;;;;;;23.92;44.05;98445.30;1896470;74;28038;-58
2022/11/18 11:24:23;;;;;;;0.37;0.37;;;;;;;23.86;43.96;98423.61;1907844;74;28095;-59
2022/11/18 11:27:36;;;;;;;1.00;0.40;;;;;;;23.97;43.86;98434.34;1902529;74;28014;-61
2022/11/18 11:30:25;;;;;;;1.00;0.40;;;;;;;23.97;43.89;98428.03;1906939;74;28021;-60
2022/11/18 11:33:35;;;;;;;0.30;0.30;;;;;;;23.96;43.83;98427.77;1912543;74;28100;-60
2022/11/18 11:36:48;;;;;;;0.40;0.40;;;;;;;23.96;43.86;98427.23;1918826;74;28041;-60
2022/11/18 11:39:58;;;;;;;0.30;0.30;;;;;;;23.95;43.87;98419.25;1908734;74;27970;-59
2022/11/18 11:43:09;;;;;;;1.00;0.60;;;;;;;23.99;43.86;98411.58;1920313;74;27964;-59
2022/11/18 11:46:01;;;;;;;0.50;0.50;;;;;;;23.99;43.79;98414.33;1898385;74;28049;-60
2022/11/18 11:49:01;;;;;;;0.50;0.50;;;;;;;23.81;43.81;98409.87;1909912;74;28001;-60
2022/11/18 11:51:55;;;;;;;1.57;0.80;;;;;;;23.67;43.92;98408.17;1900378;74;28153;-60
2022/11/18 11:54:58;;;;;;;0.90;0.60;;;;;;;23.59;44.03;98416.09;1889360;75;28355;-58
2022/11/18 11:58:01;;;;;;;0.50;0.50;;;;;;;23.58;44.05;98408.95;1901038;74;28121;-56
2022/11/18 12:00:58;;;;;;;0.70;0.70;;;;;;;23.54;44.08;98418.80;1881057;75;28054;-59
2022/11/18 12:04:02;;;;;;;0.70;0.70;;;;;;;23.53;44.14;98424.83;1899859;74;28164;-60
2022/11/18 12:06:53;;;;;;;0.60;0.60;;;;;;;23.52;44.14;98422.37;1889452;74;27978;-59
2022/11/18 12:09:47;;;;;;;2.37;0.88;;;;;;;23.53;44.06;98422.63;1885110;75;28568;-57
2022/11/18 12:12:38;;;;;;;0.60;0.60;;;;;;;23.51;44.04;98417.42;1887249;75;28090;-59
2022/11/18 12:15:41;;;;;;;0.60;0.60;;;;;;;23.51;44.00;98411.11;1880346;74;28055;-57
2022/11/18 12:18:45;;;;;;;1.25;0.70;;;;;;;23.52;43.91;98403.17;1895041;74;28238;-59
2022/11/18 12:21:49;;;;;;;1.20;0.57;;;;;;;23.52;43.89;98405.92;1883934;74;28106;-60
2022/11/18 12:24:42;;;;;;;1.80;0.70;;;;;;;23.48;43.96;98405.61;1891083;74;38623;-59
2022/11/18 12:27:39;;;;;;;2.00;0.70;;;;;;;23.50;44.09;98403.99;1882171;75;28076;-60
2022/11/18 12:30:29;;;;;;;0.70;0.70;;;;;;;23.51;44.08;98398.23;1889634;74;28047;-60
2022/11/18 12:33:19;;;;;;;1.50;0.70;;;;;;;23.48;44.11;98391.11;1896089;74;27978;-60
2022/11/18 12:36:08;;;;;;;1.52;0.70;;;;;;;23.49;44.12;98388.09;1884772;74;28102;-60
2022/11/18 12:38:58;;;;;;;0.65;0.65;;;;;;;23.49;44.14;98388.62;1881106;74;28117;-59
2022/11/18 12:45:01;;;;;;;0.60;0.60;;;;;;;23.52;44.24;98379.88;1877390;75;28192;-59
2022/11/18 12:47:56;;;;;;;1.10;0.60;;;;;;;23.52;44.25;98378.51;1879780;75;28112;-60
2022/11/18 12:50:59;;;;;;;3.90;0.70;;;;;;;23.51;44.32;98378.22;1883984;75;28589;-59
2022/11/18 12:53:53;;;;;;;0.70;0.70;;;;;;;23.53;44.31;98370.55;1867805;74;28229;-59
2022/11/18 12:56:41;;;;;;;0.50;0.50;;;;;;;23.53;44.29;98364.52;1889763;74;28059;-52
2022/11/18 12:59:32;;;;;;;0.60;0.60;;;;;;;23.56;44.34;98360.42;1894207;75;28073;-46
2022/11/18 13:02:24;;;;;;;1.77;0.78;;;;;;;23.63;44.37;98366.48;1901859;74;28148;-48
2022/11/18 13:05:24;;;;;;;1.13;0.60;;;;;;;23.63;44.32;98363.74;1885385;75;28064;-49
2022/11/18 13:08:15;;;;;;;1.80;0.60;;;;;;;23.69;44.24;98359.91;1888781;74;28047;-53
2022/11/18 13:17:50;;;;;;;0.50;0.50;;;;;;;23.64;44.34;98339.36;1896727;74;28104;-52
2022/11/18 13:20:41;;;;;;;0.87;0.50;;;;;;;23.63;44.30;98337.70;1899023;74;28250;-48
2022/11/18 13:26:41;;;;;;;0.90;0.40;;;;;;;23.70;44.23;98342.38;1904810;74;28231;-48
2022/11/18 13:29:51;;;;;;;0.70;0.50;;;;;;;23.69;44.25;98340.19;1873721;75;28241;-49
2022/11/18 13:32:44;;;;;;;1.50;0.60;;;;;;;23.72;44.23;98332.80;1887920;75;28070;-49
2022/11/18 13:35:32;;;;;;;1.47;0.50;;;;;;;23.71;44.23;98333.88;1900390;75;28258;-50
2022/11/18 13:38:23;;;;;;;1.10;0.57;;;;;;;23.74;44.22;98329.23;1890087;74;27958;-51
2022/11/18 13:41:22;;;;;;;0.80;0.70;;;;;;;23.74;44.14;98320.17;1883132;74;28012;-48
2022/11/18 13:44:27;;;;;;;2.22;0.60;;;;;;;23.76;44.17;98326.21;1887860;75;28100;-52
2022/11/18 13:47:30;;;;;;;0.62;0.50;;;;;;;23.78;44.06;98332.28;1815500;76;28166;-48
2022/11/18 13:50:21;;;;;;;0.50;0.30;;;;;;;23.73;44.11;98319.38;1819868;77;28301;-50
2022/11/18 13:53:28;;;;;;;0.60;0.60;;;;;;;23.75;44.14;98308.13;1888503;75;28145;-49
2022/11/18 13:56:25;;;;;;;0.35;0.35;;;;;;;23.76;44.08;98298.25;1886759;74;28108;-52
2022/11/18 13:59:17;;;;;;;0.50;0.50;;;;;;;23.76;44.06;98285.08;1889963;75;28010;-48
2022/11/18 14:02:09;;;;;;;0.72;0.40;;;;;;;23.77;44.10;98284.00;1901831;74;28515;-52
2022/11/18 14:05:00;;;;;;;0.85;0.50;;;;;;;23.76;44.05;98276.31;1891955;75;28046;-48
2022/11/18 14:08:00;;;;;;;0.30;0.30;;;;;;;23.78;43.98;98280.97;1905801;74;28025;-50
2022/11/18 14:10:48;;;;;;;0.62;0.60;;;;;;;23.81;43.93;98265.90;1884494;74;28552;-49
2022/11/18 14:13:40;;;;;;;0.47;0.47;;;;;;;23.80;43.89;98263.73;1887449;74;28103;-47
2022/11/18 14:16:37;;;;;;;0.60;0.60;;;;;;;23.82;43.89;98260.70;1897171;75;28151;-48
2022/11/18 14:19:31;;;;;;;0.30;0.30;;;;;;;23.82;43.83;98256.05;1859801;75;28111;-49
2022/11/18 14:22:29;;;;;;;0.50;0.50;;;;;;;23.83;43.79;98244.51;1886948;74;28099;-49
2022/11/18 14:25:20;;;;;;;1.00;0.57;;;;;;;23.83;43.80;98241.22;1870118;74;28131;-50
2022/11/18 14:28:21;;;;;;;0.50;0.50;;;;;;;23.85;43.75;98244.52;1900369;74;27995;-50
2022/11/18 14:31:22;;;;;;;0.50;0.50;;;;;;;23.82;43.77;98236.85;1894386;74;29105;-51
2022/11/18 14:34:19;;;;;;;0.85;0.50;;;;;;;23.81;43.70;98235.20;1881842;75;28070;-49
2022/11/18 14:37:16;;;;;;;0.50;0.50;;;;;;;23.81;43.83;98227.51;1883513;75;28123;-50
2022/11/18 14:40:05;;;;;;;0.43;0.43;;;;;;;23.84;43.75;98229.71;1896734;75;28083;-48
2022/11/18 14:42:53;;;;;;;0.90;0.42;;;;;;;23.83;43.78;98223.40;1881650;75;28050;-47
2022/11/18 14:45:42;;;;;;;0.40;0.40;;;;;;;23.85;43.74;98225.89;1909636;74;27961;-50
2022/11/18 14:48:31;;;;;;;0.50;0.50;;;;;;;23.86;43.65;98225.60;1888320;75;28082;-50
2022/11/18 14:51:19;;;;;;;1.20;0.60;;;;;;;23.90;43.67;98221.20;1882996;75;28103;-49
2022/11/18 14:54:13;;;;;;;0.60;0.60;;;;;;;23.91;43.58;98223.41;1895465;75;28145;-50
2022/11/18 14:57:04;;;;;;;0.42;0.42;;;;;;;23.92;43.55;98231.35;1878611;75;28051;-50
2022/11/18 14:59:52;;;;;;;1.85;0.70;;;;;;;23.92;43.57;98245.64;1886457;74;28376;-51
2022/11/18 15:02:41;;;;;;;0.30;0.30;;;;;;;23.87;43.64;98252.48;1898287;74;28045;-50
2022/11/18 15:05:30;;;;;;;0.70;0.60;;;;;;;23.88;43.69;98263.17;1882798;75;28070;-48
2022/11/18 15:08:18;;;;;;;0.70;0.50;;;;;;;23.90;43.60;98279.34;1884762;75;31990;-51
2022/11/18 15:11:06;;;;;;;0.53;0.40;;;;;;;23.88;43.57;98281.55;1876484;75;28099;-47
2022/11/18 15:13:55;;;;;;;0.80;0.50;;;;;;;23.87;43.63;98291.72;1894709;75;28257;-50
2022/11/18 15:16:44;;;;;;;0.68;0.47;;;;;;;23.92;43.54;98300.50;1888161;75;28019;-49
2022/11/18 15:19:32;;;;;;;0.50;0.50;;;;;;;23.90;43.58;98305.41;1889335;74;28011;-49
2022/11/18 15:22:20;;;;;;;0.42;0.42;;;;;;;23.91;43.54;98309.27;1905548;73;27987;-50
2022/11/18 15:25:10;;;;;;;0.40;0.40;;;;;;;23.90;43.58;98315.00;1907439;74;28031;-48
2022/11/18 15:27:58;;;;;;;0.30;0.30;;;;;;;23.89;43.61;98317.48;1886548;75;28026;-52
2022/11/18 15:30:47;;;;;;;0.50;0.50;;;;;;;23.88;43.61;98317.20;1895722;74;28040;-53
2022/11/18 15:33:35;;;;;;;;;;;;;;;23.89;43.56;98307.89;1888952;75;28568;-48
2022/11/18 15:36:27;;;;;;;;;;;;;;;23.91;43.59;98296.09;1906995;75;20203;-48
2022/11/18 15:39:14;;;;;;;;;;;;;;;23.89;43.60;98295.55;1909017;74;20202;-48
2022/11/18 15:42:01;;;;;;;;;;;;;;;23.88;43.61;98293.34;1883993;74;20351;-47
2022/11/18 15:44:49;;;;;;;;;;;;;;;23.90;43.60;98298.55;1894167;74;20198;-50
2022/11/18 15:47:36;;;;;;;;;;;;;;;23.90;43.61;98291.15;1915779;74;20195;-48
2022/11/18 15:50:24;;;;;;;;;;;;;;;23.91;43.60;98279.64;1907259;75;20281;-50
2022/11/18 15:53:11;;;;;;;;;;;;;;;23.91;43.62;98281.84;1902662;75;20168;-49
2022/11/18 15:56:17;;;;;;;;;;;;;;;23.88;43.60;98287.86;1893584;74;20113;-50
2022/11/18 15:59:12;;;;;;;;;;;;;;;23.88;43.65;98288.40;1893149;74;20155;-49
2022/11/18 16:01:59;;;;;;;;;;;;;;;23.85;43.64;98290.34;1908169;75;20152;-48
2022/11/18 16:04:47;;;;;;;;;;;;;;;23.87;43.71;98297.74;1909721;74;20184;-49
2022/11/18 16:07:34;;;;;;;;;;;;;;;23.88;43.59;98291.14;1913443;74;20125;-49
2022/11/18 16:13:27;;;;;;;;;;;;;;;23.92;43.61;98293.64;1904668;74;20169;-48
2022/11/18 16:16:18;;;;;;;;;;;;;;;23.90;43.60;98286.20;1879453;75;20227;-50
2022/11/18 16:19:07;;;;;;;;;;;;;;;23.91;43.60;98294.72;1902238;74;20196;-51
2022/11/18 16:21:56;;;;;;;;;;;;;;;23.89;43.61;98296.91;1906003;74;20227;-49
2022/11/18 16:24:43;;;;;;;;;;;;;;;23.91;43.55;98308.44;1894242;74;20172;-48
2022/11/18 16:27:30;;;;;;;;;;;;;;;23.91;43.55;98313.92;1900129;74;20247;-49
2022/11/18 16:33:23;;;;;;;;;;;;;;;23.89;43.58;98312.83;1909318;74;20223;-50
2022/11/18 16:36:10;;;;;;;;;;;;;;;23.89;43.61;98318.86;1884028;75;20122;-50
2022/11/18 16:38:58;;;;;;;;;;;;;;;23.89;43.59;98329.83;1878494;75;20158;-49
2022/11/18 16:41:45;;;;;;;;;;;;;;;23.93;43.53;98343.27;1903853;75;20197;-50
2022/11/18 16:44:33;;;;;;;;;;;;;;;23.92;43.20;98347.13;1900263;75;20246;-47
2022/11/18 16:47:21;;;;;;;;;;;;;;;24.02;43.08;98344.38;1909087;74;20168;-47
2022/11/18 16:50:09;;;;;;;;;;;;;;;24.24;42.74;98341.44;1873311;75;20176;-50
2022/11/18 16:52:56;;;;;;;;;;;;;;;24.33;42.50;98347.48;1896097;75;20606;-49
2022/11/18 16:55:43;;;;;;;;;;;;;;;24.43;42.27;98348.04;1883924;75;20122;-47
2022/11/18 16:58:31;;;;;;;;;;;;;;;24.53;42.06;98354.34;1891951;75;20172;-51
2022/11/18 17:01:18;;;;;;;;;;;;;;;24.58;41.91;98352.14;1912466;74;20259;-48
2022/11/18 17:04:07;;;;;;;;;;;;;;;24.61;41.78;98346.11;1908786;74;20162;-48
2022/11/18 17:06:55;;;;;;;;;;;;;;;24.64;41.68;98340.08;1893530;75;20160;-47
2022/11/18 17:09:42;;;;;;;;;;;;;;;24.56;41.77;98335.12;1894429;75;20156;-50
2022/11/18 17:12:30;;;;;;;;;;;;;;;24.59;41.78;98335.41;1894789;75;20218;-47
2022/11/18 17:15:17;;;;;;;;;;;;;;;24.61;41.69;98337.33;1897093;75;20203;-51
2022/11/18 17:18:05;;;;;;;;;;;;;;;24.64;41.63;98342.25;1890976;75;20163;-49
2022/11/18 17:20:52;;;;;;;;;;;;;;;24.66;41.53;98344.20;1903695;75;20168;-49
2022/11/18 17:23:40;;;;;;;;;;;;;;;24.66;41.54;98350.23;1907019;75;20125;-48
2022/11/18 17:26:28;;;;;;;;;;;;;;;24.67;41.51;98355.98;1907249;75;20204;-50
2022/11/18 17:29:15;;;;;;;;;;;;;;;24.70;41.43;98355.44;1892109;75;20200;-48
2022/11/18 17:32:03;;;;;;;;;;;;;;;24.68;41.44;98360.39;1916271;74;20207;-49
2022/11/18 17:34:50;;;;;;;;;;;;;;;24.68;41.45;98357.09;1907376;75;20187;-53
2022/11/18 17:37:38;;;;;;;;;;;;;;;24.66;41.49;98360.67;1907665;75;20206;-49
2022/11/18 17:40:25;;;;;;;;;;;;;;;24.67;41.44;98351.86;1896518;75;20164;-48
2022/11/18 17:43:12;;;;;;;;;;;;;;;24.67;41.43;98360.09;1903454;75;20121;-49
2022/11/18 17:46:00;;;;;;;;;;;;;;;24.65;41.49;98364.50;1908947;74;20188;-48
2022/11/18 17:48:48;;;;;;;;;;;;;;;24.64;41.43;98360.67;1906850;75;20176;-50
2022/11/18 17:51:35;;;;;;;;;;;;;;;24.64;41.49;98367.53;1898738;75;20200;-52
2022/11/18 17:54:23;;;;;;;;;;;;;;;24.62;41.48;98356.01;1902124;75;20166;-47
2022/11/18 17:57:10;;;;;;;;;;;;;;;24.63;41.43;98359.84;1907588;73;20142;-48
2022/11/18 17:59:57;;;;;;;;;;;;;;;24.63;41.46;98364.50;1890434;75;20121;-47
2022/11/18 18:02:45;;;;;;;;;;;;;;;24.65;41.43;98365.88;1906655;74;20169;-48
2022/11/18 18:05:33;;;;;;;;;;;;;;;24.67;41.28;98376.58;1906059;75;20164;-51
2022/11/18 18:08:20;;;;;;;;;;;;;;;24.63;41.40;98374.94;1890870;75;20124;-47
2022/11/18 18:11:09;;;;;;;;;;;;;;;24.60;41.52;98384.27;1906777;75;20179;-49
2022/11/18 18:14:11;;;;;;;;;;;;;;;24.61;41.61;98391.41;1906358;75;20193;-52
2022/11/18 18:17:00;;;;;;;;;;;;;;;24.60;41.61;98395.25;1893633;74;20171;-53
2022/11/18 18:19:47;;;;;;;;;;;;;;;24.59;41.57;98394.45;1889033;75;20592;-51
2022/11/18 18:22:35;;;;;;;0.60;0.60;;;;;;;24.57;41.58;98398.02;1878826;75;27890;-48
2022/11/18 18:25:24;;;;;;;1.80;0.70;;;;;;;24.60;41.53;98398.82;1887579;75;28029;-52
2022/11/18 18:28:12;;;;;;;0.90;0.60;;;;;;;24.60;41.50;98407.06;1900999;75;28120;-51
2022/11/18 18:31:03;;;;;;;0.80;0.80;;;;;;;24.60;41.49;98407.06;1891966;74;27944;-49
2022/11/18 18:33:52;;;;;;;0.50;0.40;;;;;;;24.58;41.47;98409.26;1878804;75;28054;-51
2022/11/18 18:36:40;;;;;;;1.57;0.50;;;;;;;24.57;41.57;98414.50;1888045;75;28034;-48
2022/11/18 18:39:28;;;;;;;0.70;0.70;;;;;;;24.55;41.55;98423.53;1900859;75;28524;-48
2022/11/18 18:42:16;;;;;;;1.77;0.70;;;;;;;24.56;41.51;98429.84;1900948;75;28466;-51
2022/11/18 18:48:12;;;;;;;0.62;0.62;;;;;;;24.58;41.58;98431.23;1863639;75;28049;-50
2022/11/18 18:51:04;;;;;;;1.05;0.70;;;;;;;24.54;41.58;98430.13;1888560;75;28091;-54
2022/11/18 18:53:55;;;;;;;0.77;0.70;;;;;;;24.52;41.58;98430.95;1888434;75;28011;-49
2022/11/18 18:56:44;;;;;;;0.60;0.60;;;;;;;24.50;41.55;98427.66;1887839;75;28007;-54
2022/11/18 18:59:33;;;;;;;1.30;0.57;;;;;;;24.52;41.60;98424.09;1898714;74;28033;-51
2022/11/18 19:02:22;;;;;;;1.35;0.60;;;;;;;24.53;41.59;98422.15;1909426;73;28090;-49
2022/11/18 19:05:10;;;;;;;1.15;0.60;;;;;;;24.53;41.50;98414.74;1909568;74;28105;-48
2022/11/18 19:07:58;;;;;;;1.90;0.60;;;;;;;24.53;41.49;98420.77;1893270;74;28094;-52
2022/11/18 19:10:47;;;;;;;0.80;0.70;;;;;;;24.50;41.55;98418.05;1892122;74;28045;-51
2022/11/18 19:13:35;;;;;;;0.73;0.73;;;;;;;24.51;41.55;98421.06;1910470;74;28049;-47
2022/11/18 19:16:23;;;;;;;0.70;0.70;;;;;;;24.53;41.54;98418.03;1917441;73;27980;-52
2022/11/18 19:19:14;;;;;;;0.70;0.70;;;;;;;24.50;41.60;98420.80;1908929;74;28650;-52
2022/11/18 19:22:02;;;;;;;2.60;0.72;;;;;;;24.49;41.61;98417.77;1910410;74;28032;-51
2022/11/18 19:24:51;;;;;;;0.70;0.70;;;;;;;24.50;41.50;98414.48;1910162;74;28082;-54
2022/11/18 19:27:40;;;;;;;1.10;0.78;;;;;;;24.51;41.57;98410.08;1909931;74;27990;-52
2022/11/18 19:30:29;;;;;;;1.05;0.80;;;;;;;24.51;41.54;98408.70;1906956;73;28169;-51
2022/11/18 19:33:17;;;;;;;1.45;0.70;;;;;;;24.47;41.54;98401.29;1913050;74;28149;-48
2022/11/18 19:36:08;;;;;;;0.90;0.88;;;;;;;24.47;41.57;98401.29;1910268;74;28010;-52
2022/11/18 19:38:55;;;;;;;1.45;0.85;;;;;;;24.47;41.54;98396.62;1896212;74;28057;-51
2022/11/18 19:41:44;;;;;;;1.15;0.80;;;;;;;24.49;41.50;98394.43;1905761;74;28016;-52
2022/11/18 19:44:32;;;;;;;0.72;0.72;;;;;;;24.47;41.52;98398.00;1900167;74;28104;-48
2022/11/18 19:47:20;;;;;;;0.83;0.83;;;;;;;24.48;41.51;98394.14;1908659;74;27995;-50
2022/11/18 19:50:09;;;;;;;0.88;0.85;;;;;;;24.46;41.47;98398.25;1910190;74;28126;-50
2022/11/18 19:53:30;;;;;;;0.80;0.70;;;;;;;24.43;41.60;98396.08;1910418;74;28103;-53
2022/11/18 19:55:53;;;;;;;0.70;0.70;;;;;;;24.45;41.54;98400.20;1910137;74;28031;-52
2022/11/18 19:58:45;;;;;;;0.82;0.82;;;;;;;24.44;41.58;98399.91;1901495;74;29033;-52
2022/11/18 20:01:33;;;;;;;0.70;0.70;;;;;;;24.44;41.58;98395.80;1895643;74;28087;-50
2022/11/18 20:04:22;;;;;;;1.00;0.80;;;;;;;24.46;41.54;98401.83;1910635;74;27981;-51
2022/11/18 20:07:10;;;;;;;0.80;0.80;;;;;;;24.45;41.58;98394.71;1910210;74;27992;-52
2022/11/18 20:09:58;;;;;;;0.70;0.70;;;;;;;24.48;41.56;98399.63;1897752;74;27974;-50
2022/11/18 20:12:48;;;;;;;0.62;0.62;;;;;;;24.45;41.52;98403.48;1909931;74;28025;-52
2022/11/18 20:15:36;;;;;;;0.82;0.82;;;;;;;24.44;41.57;98405.41;1906680;74;31105;-50
2022/11/18 20:18:25;;;;;;;0.80;0.80;;;;;;;24.42;41.60;98405.40;1912183;74;28015;-49
2022/11/18 20:21:20;;;;;;;0.70;0.70;;;;;;;24.45;41.50;98405.69;1894045;74;28208;-49
2022/11/18 20:24:12;;;;;;;1.10;1.00;;;;;;;24.44;41.57;98409.52;1911356;74;28066;-49
2022/11/18 20:27:00;;;;;;;0.90;0.90;;;;;;;24.42;41.59;98422.70;1899142;74;28163;-48
2022/11/18 20:29:48;;;;;;;0.82;0.82;;;;;;;24.42;41.52;98425.44;1908312;74;28048;-49
2022/11/18 20:32:36;;;;;;;0.85;0.85;;;;;;;24.42;41.54;98417.20;1904653;74;28086;-51
2022/11/18 20:35:25;;;;;;;0.80;0.80;;;;;;;24.45;41.59;98430.94;1909559;74;27989;-50
2022/11/18 20:38:13;;;;;;;0.88;0.88;;;;;;;24.43;41.60;98431.77;1910309;74;28082;-53
2022/11/18 20:41:03;;;;;;;0.90;0.90;;;;;;;24.48;41.57;98433.16;1910406;74;27993;-49
2022/11/18 20:43:51;;;;;;;0.90;0.90;;;;;;;24.46;41.54;98434.77;1882603;74;37556;-52
2022/11/18 20:46:40;;;;;;;0.80;0.80;;;;;;;24.45;41.60;98441.38;1884693;73;28198;-49
2022/11/18 20:49:28;;;;;;;0.85;0.78;;;;;;;24.45;41.63;98441.38;1904702;74;27989;-52
2022/11/18 20:52:16;;;;;;;1.80;0.90;;;;;;;24.47;41.54;98435.06;1910177;74;28097;-54
2022/11/18 20:55:06;;;;;;;0.80;0.80;;;;;;;24.40;41.58;98430.92;1893258;74;27986;-52
2022/11/18 20:57:54;;;;;;;0.97;0.80;;;;;;;24.41;41.57;98440.25;1906537;74;28047;-49
2022/11/18 21:00:43;;;;;;;1.00;1.00;;;;;;;24.35;41.66;98437.23;1907190;74;28056;-51
2022/11/18 21:03:32;;;;;;;2.60;1.00;;;;;;;24.40;41.65;98442.73;1895988;75;28038;-52
2022/11/18 21:06:21;;;;;;;1.30;0.93;;;;;;;24.36;41.69;98441.64;1871265;75;28075;-47
2022/11/18 21:09:11;;;;;;;0.90;0.90;;;;;;;24.36;41.74;98444.92;1895489;75;28086;-53
2022/11/18 21:11:59;;;;;;;0.72;0.72;;;;;;;24.33;41.81;98445.45;1900484;75;28031;-52
2022/11/18 21:14:49;;;;;;;1.15;1.10;;;;;;;24.31;41.76;98433.93;1888398;75;28084;-52
2022/11/18 21:17:37;;;;;;;1.00;1.00;;;;;;;24.36;41.76;98441.64;1901165;74;28112;-51
2022/11/18 21:23:32;;;;;;;0.90;0.90;;;;;;;24.33;41.80;98439.42;1894661;74;28126;-49
2022/11/18 21:26:21;;;;;;;1.02;0.90;;;;;;;24.33;41.79;98433.11;1888536;75;28015;-48
2022/11/18 21:29:12;;;;;;;1.62;1.00;;;;;;;24.31;41.82;98438.05;1897558;75;28050;-51
2022/11/18 21:32:01;;;;;;;0.88;0.80;;;;;;;24.32;41.82;98440.51;1888177;75;28073;-51
2022/11/18 21:34:49;;;;;;;2.35;0.90;;;;;;;24.33;41.79;98443.55;1888505;75;28078;-53
2022/11/18 21:37:38;;;;;;;1.10;1.00;;;;;;;24.34;41.76;98444.38;1899047;75;27978;-51
2022/11/18 21:40:26;;;;;;;0.90;0.90;;;;;;;24.37;41.79;98439.70;1888224;75;28108;-52
2022/11/18 21:43:14;;;;;;;1.30;0.82;;;;;;;24.36;41.68;98442.18;1898202;75;28577;-51
2022/11/18 21:46:04;;;;;;;1.27;0.90;;;;;;;24.30;41.75;98432.27;1902754;73;28143;-48
2022/11/18 21:48:53;;;;;;;0.72;0.72;;;;;;;24.38;41.71;98449.05;1890291;75;27996;-50
2022/11/18 21:51:43;;;;;;;0.90;0.90;;;;;;;24.38;41.64;98444.94;1881847;75;28017;-52
2022/11/18 21:54:33;;;;;;;0.80;0.80;;;;;;;24.36;41.67;98445.76;1900739;75;28125;-52
2022/11/18 21:57:21;;;;;;;2.20;0.90;;;;;;;24.36;41.64;98444.38;1896291;75;28108;-52
2022/11/18 22:00:11;;;;;;;0.90;0.90;;;;;;;24.33;41.72;98453.69;1883942;75;28395;-49
2022/11/18 22:02:58;;;;;;;1.00;1.00;;;;;;;24.35;41.69;98456.45;1888767;74;28024;-47
2022/11/18 22:05:47;;;;;;;0.90;0.90;;;;;;;24.39;41.63;98453.97;1905810;74;28007;-52
2022/11/18 22:08:37;;;;;;;0.90;0.90;;;;;;;24.35;41.63;98451.50;1910264;74;28054;-49
2022/11/18 22:11:26;;;;;;;0.80;0.80;;;;;;;24.34;41.66;98455.36;1895395;74;28055;-50
2022/11/18 22:14:15;;;;;;;0.95;0.95;;;;;;;24.36;41.64;98457.28;1886035;74;28100;-46
2022/11/18 22:17:03;;;;;;;0.90;0.90;;;;;;;24.35;41.63;98456.45;1920344;73;27985;-50
2022/11/18 22:19:52;;;;;;;0.85;0.80;;;;;;;24.36;41.62;98457.28;1909861;74;28480;-48
2022/11/18 22:22:40;;;;;;;0.88;0.88;;;;;;;24.37;41.59;98458.37;1910164;74;28089;-48
2022/11/18 22:25:29;;;;;;;1.17;1.02;;;;;;;24.41;41.52;98459.47;1908535;74;28021;-50
2022/11/18 22:28:17;;;;;;;1.50;0.90;;;;;;;24.36;41.57;98460.85;1908943;74;28131;-49
2022/11/18 22:31:08;;;;;;;1.00;1.00;;;;;;;24.30;41.55;98456.97;1915468;74;27975;-50
2022/11/18 22:33:57;;;;;;;1.87;0.90;;;;;;;24.31;41.49;98461.37;1895804;74;28141;-51
2022/11/18 22:36:45;;;;;;;1.17;0.80;;;;;;;24.35;41.54;98468.80;1884357;74;28024;-50
2022/11/18 22:39:33;;;;;;;0.90;0.90;;;;;;;24.36;41.45;98471.83;1903950;74;28049;-51
2022/11/18 22:45:28;;;;;;;1.10;1.00;;;;;;;24.37;41.51;98470.72;1890744;74;28003;-52
2022/11/18 22:48:17;;;;;;;1.15;1.05;;;;;;;24.35;41.45;98474.28;1906383;74;28389;-50
2022/11/18 22:51:06;;;;;;;0.80;0.80;;;;;;;24.34;41.51;98479.48;1910583;74;28129;-48
2022/11/18 22:53:54;;;;;;;1.27;1.10;;;;;;;24.32;41.52;98476.19;1910280;74;28017;-52
2022/11/18 22:56:42;;;;;;;0.90;0.90;;;;;;;24.37;41.43;98475.38;1909533;74;28117;-49
2022/11/18 22:59:30;;;;;;;1.00;1.00;;;;;;;24.34;41.48;98473.20;1892473;74;28594;-51